Archival Weather

Chicago O'Hare International

Chicago, Illinois (KORD)

Report from: Tuesday, December 13, 2022 1:51 PM CST
Current time: Monday, June 24, 2024 4:25 AM CDT

Current weather – Weather history – Daily summaries
Weather forecast

Temperature2.8°C (37.0°F)
Wind chill-2.4°C (27.7°F)
Dew point-1.7°C (28.9°F)
Winds 14 kts (7.2 m/s, 16.1 mph) East-Southeast (110°)
Visibility10 mi. (16.1 km)
Clouds Ceiling: Overcast 1,900 ft. (579 m)
Altimeter30.12 in.Hg (1020 mB)
Relative humidity72 %
Density altitude-1,649 ft. (-502 m)
Sea-level pressure102.1 kPa (1021 mB, 30.14 in.Hg)
Remarks Automated weather observing station with precipitation discriminator
Flight conditions Marginal Visual Meteorological Conditions
Raw dataKORD 131951Z 11014KT 10SM OVC019 03/M02 A3012 RMK AO2 SLP206 T00281017
An error has occurred. This application may no longer respond until reloaded. Reload 🗙